createdAt,value
2023-05-02T00:01:34.664Z,15.44
2023-05-02T00:04:01.123Z,15.43
2023-05-02T00:06:27.609Z,15.43
2023-05-02T00:08:54.018Z,15.12
2023-05-02T00:11:20.432Z,15.08
2023-05-02T00:13:46.827Z,15.10
2023-05-02T00:16:13.207Z,15.10
2023-05-02T00:18:39.611Z,15.18
2023-05-02T00:21:05.981Z,14.98
2023-05-02T00:23:32.364Z,14.93
2023-05-02T00:25:58.920Z,14.86
2023-05-02T00:28:25.408Z,14.90
2023-05-02T00:30:51.863Z,14.76
2023-05-02T00:33:18.400Z,14.74
2023-05-02T00:35:44.763Z,14.91
2023-05-02T00:38:11.136Z,14.93
2023-05-02T00:40:37.498Z,14.74
2023-05-02T00:43:03.872Z,14.57
2023-05-02T00:45:30.307Z,14.74
2023-05-02T00:47:56.706Z,14.65
2023-05-02T00:50:23.126Z,14.79
2023-05-02T00:52:49.553Z,14.67
2023-05-02T00:55:16.066Z,14.64
2023-05-02T00:57:42.449Z,14.55
2023-05-02T01:00:08.846Z,14.39
2023-05-02T01:02:35.307Z,14.43
2023-05-02T01:05:01.793Z,14.41
2023-05-02T01:07:28.192Z,14.49
2023-05-02T01:09:54.586Z,14.49
2023-05-02T01:12:21.026Z,14.58
2023-05-02T01:14:47.449Z,14.55
2023-05-02T01:17:13.818Z,14.58
2023-05-02T01:19:40.195Z,14.52
2023-05-02T01:22:06.589Z,14.67
2023-05-02T01:24:33.096Z,14.61
2023-05-02T01:26:59.504Z,14.49
2023-05-02T01:29:25.884Z,14.43
2023-05-02T01:31:52.425Z,14.50
2023-05-02T01:34:18.852Z,14.62
2023-05-02T01:36:45.282Z,14.51
2023-05-02T01:39:11.674Z,14.67
2023-05-02T01:41:38.055Z,14.61
2023-05-02T01:44:04.435Z,14.59
2023-05-02T01:46:30.841Z,14.67
2023-05-02T01:48:57.312Z,14.61
2023-05-02T01:51:23.696Z,14.75
2023-05-02T01:53:50.096Z,14.82
2023-05-02T01:56:16.500Z,14.94
2023-05-02T01:58:42.908Z,15.02
2023-05-02T02:01:09.317Z,14.94
2023-05-02T02:03:35.797Z,14.94
2023-05-02T02:06:02.340Z,14.93
2023-05-02T02:08:28.787Z,14.98
2023-05-02T02:10:55.161Z,14.91
2023-05-02T02:13:21.577Z,14.91
2023-05-02T02:15:47.977Z,14.91
2023-05-02T02:18:14.483Z,14.92
2023-05-02T02:20:41.142Z,14.89
2023-05-02T02:23:07.533Z,14.77
2023-05-02T02:25:33.907Z,14.72
2023-05-02T02:28:00.320Z,14.72
2023-05-02T02:30:26.751Z,14.70
2023-05-02T02:32:53.209Z,14.69
2023-05-02T02:35:19.619Z,14.67
2023-05-02T02:37:46.100Z,14.66
2023-05-02T02:40:12.474Z,14.58
2023-05-02T02:42:38.924Z,14.59
2023-05-02T02:45:05.416Z,14.51
2023-05-02T02:47:31.854Z,14.52
2023-05-02T02:49:58.422Z,14.44
2023-05-02T02:52:24.873Z,14.30
2023-05-02T02:54:51.283Z,14.05
2023-05-02T02:57:17.675Z,14.18
2023-05-02T02:59:44.116Z,14.08
2023-05-02T03:02:10.761Z,14.15
2023-05-02T03:04:37.306Z,14.15
2023-05-02T03:07:03.742Z,14.25
2023-05-02T03:09:30.108Z,14.28
2023-05-02T03:11:56.502Z,14.14
2023-05-02T03:14:23.156Z,14.14
2023-05-02T03:16:49.502Z,14.22
2023-05-02T03:19:15.923Z,14.06
2023-05-02T03:21:42.464Z,14.17
2023-05-02T03:24:08.836Z,14.12
2023-05-02T03:26:35.749Z,14.08
2023-05-02T03:29:02.139Z,14.08
2023-05-02T03:31:28.583Z,13.98
2023-05-02T03:34:00.557Z,13.91
2023-05-02T03:36:27.082Z,14.02
2023-05-02T03:38:55.564Z,13.92
2023-05-02T03:41:21.985Z,13.98
2023-05-02T03:43:48.439Z,13.86
2023-05-02T03:46:14.928Z,13.92
2023-05-02T03:48:41.499Z,13.92
2023-05-02T03:51:07.920Z,13.98
2023-05-02T03:53:34.313Z,13.90
2023-05-02T03:56:00.751Z,13.93
2023-05-02T03:58:27.231Z,13.81
2023-05-02T04:00:53.740Z,13.90
2023-05-02T04:03:20.462Z,13.81
2023-05-02T04:05:46.922Z,13.88
2023-05-02T04:08:13.368Z,13.98
2023-05-02T04:10:39.766Z,13.85
2023-05-02T04:13:06.296Z,13.86
2023-05-02T04:15:32.661Z,13.91
2023-05-02T04:17:59.606Z,13.91
2023-05-02T04:20:26.172Z,13.87
2023-05-02T04:22:52.567Z,13.87
2023-05-02T04:25:18.917Z,13.79
2023-05-02T04:27:45.299Z,13.88
2023-05-02T04:30:11.685Z,13.87
2023-05-02T04:32:38.199Z,13.88
2023-05-02T04:35:04.781Z,13.83
2023-05-02T04:37:31.141Z,13.81
2023-05-02T04:39:57.682Z,13.69
2023-05-02T04:42:24.171Z,13.84
2023-05-02T04:44:50.561Z,13.66
2023-05-02T04:47:19.028Z,13.72
2023-05-02T04:49:45.421Z,13.73
2023-05-02T04:52:11.841Z,13.64
2023-05-02T04:54:38.296Z,13.42
2023-05-02T04:57:04.941Z,13.57
2023-05-02T04:59:31.421Z,13.48
2023-05-02T05:01:59.784Z,13.49
2023-05-02T05:04:26.531Z,13.73
2023-05-02T05:06:53.509Z,13.82
2023-05-02T05:09:23.152Z,13.90
2023-05-02T05:11:49.615Z,13.99
2023-05-02T05:14:16.008Z,14.06
2023-05-02T05:16:42.517Z,14.06
2023-05-02T05:19:09.059Z,14.01
2023-05-02T05:21:36.345Z,14.12
2023-05-02T05:24:02.864Z,14.24
2023-05-02T05:26:29.431Z,14.16
2023-05-02T05:28:55.899Z,14.24
2023-05-02T05:31:22.540Z,14.37
2023-05-02T05:33:49.020Z,14.42
2023-05-02T05:36:15.508Z,14.50
2023-05-02T05:38:43.425Z,14.50
2023-05-02T05:41:09.859Z,14.52
2023-05-02T05:43:38.113Z,14.63
2023-05-02T05:46:05.071Z,14.69
2023-05-02T05:48:31.478Z,14.86
2023-05-02T05:50:57.912Z,14.84
2023-05-02T05:53:24.320Z,14.86
2023-05-02T05:55:50.721Z,14.89
2023-05-02T05:58:17.367Z,14.82
2023-05-02T06:00:44.028Z,14.99
2023-05-02T06:03:10.612Z,15.00
2023-05-02T06:05:39.667Z,15.08
2023-05-02T06:08:06.127Z,15.19
2023-05-02T06:10:32.495Z,15.25
2023-05-02T06:12:58.930Z,15.29
2023-05-02T06:15:26.520Z,15.35
2023-05-02T06:17:53.391Z,15.52
2023-05-02T06:20:19.868Z,15.59
2023-05-02T06:22:46.556Z,15.63
2023-05-02T06:25:12.980Z,15.54
2023-05-02T06:27:39.826Z,15.40
2023-05-02T06:30:06.284Z,15.52
2023-05-02T06:32:32.747Z,15.65
2023-05-02T06:34:59.230Z,15.66
2023-05-02T06:37:25.863Z,15.68
2023-05-02T06:39:52.330Z,15.72
2023-05-02T06:42:18.936Z,15.81
2023-05-02T06:44:45.404Z,15.91
2023-05-02T06:47:11.899Z,16.06
2023-05-02T06:49:38.409Z,16.14
2023-05-02T06:52:04.819Z,16.16
2023-05-02T06:54:31.227Z,16.02
2023-05-02T06:56:57.722Z,16.04
2023-05-02T06:59:24.139Z,15.99
2023-05-02T07:01:50.490Z,15.98
2023-05-02T07:04:16.964Z,15.95
2023-05-02T07:06:43.451Z,15.97
2023-05-02T07:09:09.855Z,16.04
2023-05-02T07:11:36.290Z,16.08
2023-05-02T07:14:02.728Z,16.28
2023-05-02T07:16:29.335Z,16.61
2023-05-02T07:18:55.886Z,16.81
2023-05-02T07:21:22.311Z,16.91
2023-05-02T07:23:48.768Z,16.96
2023-05-02T07:26:15.218Z,17.11
2023-05-02T07:28:41.707Z,17.07
2023-05-02T07:31:08.271Z,17.03
2023-05-02T07:33:34.748Z,17.04
2023-05-02T07:36:01.308Z,17.17
2023-05-02T07:38:27.732Z,17.30
2023-05-02T07:40:54.115Z,17.32
2023-05-02T07:43:20.504Z,17.41
2023-05-02T07:45:47.023Z,17.51
2023-05-02T07:48:13.860Z,17.42
2023-05-02T07:50:40.603Z,17.57
2023-05-02T07:53:07.072Z,17.71
2023-05-02T07:55:36.273Z,17.64
2023-05-02T07:58:02.675Z,17.48
2023-05-02T08:00:29.130Z,17.61
2023-05-02T08:02:55.607Z,17.78
2023-05-02T08:05:22.257Z,17.40
2023-05-02T08:07:48.674Z,17.33
2023-05-02T08:10:15.203Z,17.23
2023-05-02T08:12:41.637Z,16.96
2023-05-02T08:15:08.272Z,16.99
2023-05-02T08:17:34.767Z,17.43
2023-05-02T08:20:04.308Z,17.66
2023-05-02T08:22:30.688Z,17.62
2023-05-02T08:24:57.092Z,17.69
2023-05-02T08:27:23.516Z,17.37
2023-05-02T08:29:49.941Z,17.31
2023-05-02T08:32:16.648Z,17.49
2023-05-02T08:34:43.284Z,17.78
2023-05-02T08:37:09.765Z,17.86
2023-05-02T08:39:36.633Z,17.88
2023-05-02T08:42:03.075Z,18.13
2023-05-02T08:44:29.469Z,18.33
2023-05-02T08:46:55.892Z,17.99
2023-05-02T08:49:22.558Z,17.98
2023-05-02T08:51:49.131Z,18.09
2023-05-02T08:54:15.725Z,17.61
2023-05-02T08:56:42.132Z,18.00
2023-05-02T08:59:08.556Z,18.00
2023-05-02T09:01:34.981Z,18.25
2023-05-02T09:04:01.540Z,18.13
2023-05-02T09:06:28.147Z,18.45
2023-05-02T09:08:57.784Z,18.43
2023-05-02T09:11:24.657Z,18.45
2023-05-02T09:13:51.054Z,18.43
2023-05-02T09:16:17.567Z,18.39
2023-05-02T09:18:43.977Z,18.34
2023-05-02T09:21:10.760Z,18.23
2023-05-02T09:23:37.781Z,17.97
2023-05-02T09:26:04.376Z,18.14
2023-05-02T09:28:30.941Z,18.33
2023-05-02T09:30:57.499Z,18.19
2023-05-02T09:33:25.838Z,17.95
2023-05-02T09:35:55.567Z,18.18
2023-05-02T09:38:22.204Z,18.30
2023-05-02T09:40:48.847Z,18.35
2023-05-02T09:43:15.286Z,18.51
2023-05-02T09:45:42.287Z,18.44
2023-05-02T09:48:08.852Z,18.60
2023-05-02T09:50:35.388Z,18.67
2023-05-02T09:53:01.995Z,18.55
2023-05-02T09:55:28.429Z,18.36
2023-05-02T09:57:55.038Z,18.51
2023-05-02T10:00:21.666Z,18.92
2023-05-02T10:02:48.264Z,18.77
2023-05-02T10:05:14.774Z,18.98
2023-05-02T10:07:42.396Z,18.94
2023-05-02T10:10:08.911Z,18.87
2023-05-02T10:12:35.345Z,18.82
2023-05-02T10:15:02.253Z,18.65
2023-05-02T10:17:29.136Z,18.73
2023-05-02T10:19:55.677Z,18.87
2023-05-02T10:22:25.360Z,18.80
2023-05-02T10:24:51.870Z,18.96
2023-05-02T10:27:18.286Z,18.88
2023-05-02T10:29:44.772Z,18.95
2023-05-02T10:32:11.372Z,19.11
2023-05-02T10:34:37.857Z,19.12
2023-05-02T10:37:09.105Z,19.04
2023-05-02T10:39:35.525Z,19.02
2023-05-02T10:42:01.958Z,19.03
2023-05-02T10:44:28.499Z,19.04
2023-05-02T10:46:54.925Z,19.00
2023-05-02T10:49:21.357Z,18.88
2023-05-02T10:51:47.805Z,18.97
2023-05-02T10:54:14.259Z,19.05
2023-05-02T10:56:41.035Z,19.07
2023-05-02T10:59:07.591Z,19.05
2023-05-02T11:01:34.184Z,19.06
2023-05-02T11:04:00.695Z,19.19
2023-05-02T11:06:27.078Z,19.01
2023-05-02T11:08:53.522Z,18.81
2023-05-02T11:11:19.995Z,19.11
2023-05-02T11:13:46.469Z,19.21
2023-05-02T11:16:12.867Z,19.09
2023-05-02T11:18:39.495Z,19.05
2023-05-02T11:21:08.889Z,19.03
2023-05-02T11:23:35.310Z,19.32
2023-05-02T11:26:01.917Z,19.12
2023-05-02T11:28:28.387Z,19.21
2023-05-02T11:30:58.092Z,19.48
2023-05-02T11:33:24.772Z,19.47
2023-05-02T11:35:51.318Z,18.96
2023-05-02T11:38:17.926Z,19.14
2023-05-02T11:40:44.365Z,19.22
2023-05-02T11:43:10.791Z,19.32
2023-05-02T11:45:37.342Z,19.50
2023-05-02T11:48:03.904Z,19.34
2023-05-02T11:50:30.362Z,19.51
2023-05-02T11:52:56.787Z,19.41
2023-05-02T11:55:23.312Z,19.36
2023-05-02T11:57:49.789Z,19.64
2023-05-02T12:00:16.217Z,19.47
2023-05-02T12:02:42.750Z,19.73
2023-05-02T12:05:09.327Z,19.48
2023-05-02T12:07:35.822Z,19.61
2023-05-02T12:10:02.246Z,19.74
2023-05-02T12:12:28.680Z,19.88
2023-05-02T12:14:55.113Z,19.83
2023-05-02T12:17:21.553Z,19.75
2023-05-02T12:19:48.309Z,20.02
2023-05-02T12:22:14.731Z,19.84
2023-05-02T12:24:41.186Z,19.83
2023-05-02T12:27:07.852Z,19.85
2023-05-02T12:29:34.253Z,19.78
2023-05-02T12:32:00.826Z,19.98
2023-05-02T12:34:27.349Z,19.68
2023-05-02T12:36:53.755Z,19.64
2023-05-02T12:39:20.194Z,19.75
2023-05-02T12:41:49.361Z,19.83
2023-05-02T12:44:15.909Z,19.61
2023-05-02T12:46:42.364Z,19.76
2023-05-02T12:49:08.858Z,19.92
2023-05-02T12:51:35.278Z,20.00
2023-05-02T12:54:01.868Z,19.85
2023-05-02T12:56:30.830Z,19.61
2023-05-02T12:58:57.348Z,19.83
2023-05-02T13:01:23.877Z,19.90
2023-05-02T13:03:50.376Z,20.03
2023-05-02T13:06:16.961Z,19.94
2023-05-02T13:08:43.613Z,20.16
2023-05-02T13:11:10.152Z,20.17
2023-05-02T13:13:36.628Z,20.11
2023-05-02T13:16:03.296Z,20.29
2023-05-02T13:18:29.818Z,20.26
2023-05-02T13:20:56.200Z,19.98
2023-05-02T13:23:22.845Z,19.92
2023-05-02T13:25:49.517Z,19.82
2023-05-02T13:28:15.958Z,19.98
2023-05-02T13:30:42.439Z,20.03
2023-05-02T13:33:09.092Z,20.10
2023-05-02T13:35:35.629Z,20.12
2023-05-02T13:38:02.079Z,19.99
2023-05-02T13:40:28.610Z,20.00
2023-05-02T13:42:55.057Z,20.15
2023-05-02T13:45:21.473Z,20.48
2023-05-02T13:47:47.895Z,20.36
2023-05-02T13:50:14.315Z,20.52
2023-05-02T13:52:41.311Z,20.60
2023-05-02T13:55:07.806Z,20.85
2023-05-02T13:57:34.181Z,20.86
2023-05-02T14:00:00.873Z,20.90
2023-05-02T14:02:27.461Z,21.04
2023-05-02T14:04:53.964Z,21.20
2023-05-02T14:07:20.385Z,21.18
2023-05-02T14:09:46.795Z,21.30
2023-05-02T14:12:13.223Z,21.38
2023-05-02T14:14:39.833Z,21.36
2023-05-02T14:17:06.389Z,21.73
2023-05-02T14:19:32.850Z,22.00
2023-05-02T14:21:59.284Z,21.96
2023-05-02T14:24:25.732Z,22.50
2023-05-02T14:26:52.326Z,22.88
2023-05-02T14:29:18.879Z,23.25
2023-05-02T14:31:45.355Z,23.87
2023-05-02T14:34:11.846Z,24.43
2023-05-02T14:36:38.451Z,24.96
2023-05-02T14:39:05.127Z,25.09
2023-05-02T14:41:31.555Z,25.46
2023-05-02T14:43:58.005Z,25.85
2023-05-02T14:46:24.762Z,26.50
2023-05-02T14:48:51.288Z,26.97
2023-05-02T14:51:17.702Z,26.83
2023-05-02T14:53:44.154Z,27.69
2023-05-02T14:56:10.625Z,28.10
2023-05-02T14:58:37.125Z,28.72
2023-05-02T15:01:03.593Z,28.72
2023-05-02T15:03:30.341Z,28.78
2023-05-02T15:05:56.878Z,29.61
2023-05-02T15:08:23.314Z,29.08
2023-05-02T15:10:49.996Z,29.61
2023-05-02T15:13:16.455Z,29.57
2023-05-02T15:15:43.016Z,29.44
2023-05-02T15:18:09.725Z,29.65
2023-05-02T15:20:36.246Z,29.95
2023-05-02T15:23:02.767Z,29.73
2023-05-02T15:25:29.239Z,29.92
2023-05-02T15:27:55.756Z,29.53
2023-05-02T15:30:23.513Z,30.57
2023-05-02T15:32:50.182Z,31.16
2023-05-02T15:35:16.841Z,31.11
2023-05-02T15:37:43.523Z,31.07
2023-05-02T15:40:09.996Z,31.51
2023-05-02T15:42:38.164Z,31.54
2023-05-02T15:45:07.418Z,32.33
2023-05-02T15:47:33.981Z,32.24
2023-05-02T15:50:00.998Z,32.61
2023-05-02T15:52:29.864Z,33.04
2023-05-02T15:54:56.353Z,32.67
2023-05-02T15:57:23.062Z,32.73
2023-05-02T15:59:49.541Z,32.68
2023-05-02T16:02:16.014Z,32.67
2023-05-02T16:04:42.499Z,32.39
2023-05-02T16:07:08.949Z,32.24
2023-05-02T16:09:35.478Z,32.00
2023-05-02T16:12:02.216Z,31.65
2023-05-02T16:14:28.653Z,32.12
2023-05-02T16:16:55.790Z,31.84
2023-05-02T16:19:22.332Z,32.00
2023-05-02T16:21:48.736Z,32.47
2023-05-02T16:24:15.311Z,32.41
2023-05-02T16:26:41.870Z,31.55
2023-05-02T16:29:08.521Z,29.58
2023-05-02T16:31:35.233Z,28.38
2023-05-02T16:34:01.773Z,27.00
2023-05-02T16:36:28.189Z,25.99
2023-05-02T16:38:54.609Z,25.34
2023-05-02T16:41:21.120Z,24.75
2023-05-02T16:43:47.716Z,24.13
2023-05-02T16:46:14.112Z,23.51
2023-05-02T16:48:40.551Z,23.25
2023-05-02T16:51:07.018Z,22.88
2023-05-02T16:53:33.509Z,22.92
2023-05-02T16:56:00.154Z,22.80
2023-05-02T16:58:26.735Z,22.46
2023-05-02T17:00:53.242Z,22.26
2023-05-02T17:03:19.926Z,21.98
2023-05-02T17:05:46.351Z,21.93
2023-05-02T17:08:12.793Z,21.98
2023-05-02T17:10:39.189Z,21.89
2023-05-02T17:13:06.350Z,21.74
2023-05-02T17:15:32.860Z,21.66
2023-05-02T17:17:59.349Z,21.76
2023-05-02T17:20:25.814Z,21.78
2023-05-02T17:22:52.374Z,21.63
2023-05-02T17:25:18.811Z,21.69
2023-05-02T17:27:45.339Z,21.59
2023-05-02T17:30:11.786Z,21.66
2023-05-02T17:32:38.180Z,21.62
2023-05-02T17:35:04.573Z,21.57
2023-05-02T17:37:31.068Z,21.55
2023-05-02T17:39:57.858Z,21.43
2023-05-02T17:42:24.347Z,21.36
2023-05-02T17:44:50.896Z,21.43
2023-05-02T17:47:17.299Z,21.32
2023-05-02T17:49:43.989Z,21.26
2023-05-02T17:52:10.438Z,21.29
2023-05-02T17:54:36.859Z,21.05
2023-05-02T17:57:03.413Z,21.01
2023-05-02T17:59:29.894Z,21.07
2023-05-02T18:01:56.623Z,20.94
2023-05-02T18:04:23.140Z,20.91
2023-05-02T18:06:49.810Z,20.82
2023-05-02T18:09:16.353Z,20.82
2023-05-02T18:11:42.763Z,20.76
2023-05-02T18:14:09.188Z,20.74
2023-05-02T18:16:35.623Z,20.72
2023-05-02T18:19:02.274Z,20.24
2023-05-02T18:21:28.712Z,20.17
2023-05-02T18:23:55.098Z,19.97
2023-05-02T18:26:21.474Z,19.83
2023-05-02T18:28:47.906Z,19.50
2023-05-02T18:31:14.364Z,19.31
2023-05-02T18:33:40.957Z,19.51
2023-05-02T18:36:07.452Z,19.19
2023-05-02T18:38:33.954Z,19.41
2023-05-02T18:41:00.374Z,19.01
2023-05-02T18:43:26.917Z,18.88
2023-05-02T18:45:53.347Z,19.02
2023-05-02T18:48:19.812Z,18.98
2023-05-02T18:50:46.500Z,18.75
2023-05-02T18:53:12.938Z,18.84
2023-05-02T18:55:39.677Z,18.56
2023-05-02T18:58:06.047Z,18.63
2023-05-02T19:00:33.778Z,18.52
2023-05-02T19:03:02.101Z,18.35
2023-05-02T19:05:28.579Z,18.55
2023-05-02T19:07:54.962Z,18.73
2023-05-02T19:10:21.368Z,18.68
2023-05-02T19:12:47.768Z,18.42
2023-05-02T19:15:14.217Z,18.30
2023-05-02T19:17:40.914Z,18.33
2023-05-02T19:20:07.362Z,18.20
2023-05-02T19:22:33.832Z,18.16
2023-05-02T19:25:00.372Z,17.92
2023-05-02T19:27:27.140Z,18.11
2023-05-02T19:29:53.879Z,17.93
2023-05-02T19:32:23.285Z,17.94
2023-05-02T19:34:49.673Z,17.48
2023-05-02T19:37:16.066Z,17.50
2023-05-02T19:39:42.477Z,17.51
2023-05-02T19:42:08.945Z,17.59
2023-05-02T19:44:35.570Z,17.42
2023-05-02T19:47:02.026Z,17.41
2023-05-02T19:49:28.470Z,17.38
2023-05-02T19:51:54.897Z,17.22
2023-05-02T19:54:21.310Z,17.30
2023-05-02T19:56:47.761Z,17.30
2023-05-02T19:59:14.142Z,17.38
2023-05-02T20:01:40.626Z,17.30
2023-05-02T20:04:07.110Z,17.31
2023-05-02T20:06:33.632Z,17.57
2023-05-02T20:09:00.045Z,17.35
2023-05-02T20:11:26.397Z,17.11
2023-05-02T20:13:52.915Z,16.85
2023-05-02T20:16:19.392Z,16.62
2023-05-02T20:18:45.864Z,16.72
2023-05-02T20:21:12.348Z,16.77
2023-05-02T20:23:38.904Z,17.01
2023-05-02T20:26:05.442Z,16.94
2023-05-02T20:28:33.951Z,16.73
2023-05-02T20:31:00.492Z,16.68
2023-05-02T20:33:36.933Z,16.57
2023-05-02T20:36:07.902Z,16.69
2023-05-02T20:38:34.500Z,16.87
2023-05-02T20:41:00.887Z,17.01
2023-05-02T20:43:27.277Z,16.60
2023-05-02T20:45:53.737Z,16.71
2023-05-02T20:48:20.195Z,16.66
2023-05-02T20:50:46.625Z,16.78
2023-05-02T20:53:13.090Z,16.76
2023-05-02T20:55:39.533Z,16.93
2023-05-02T20:58:06.010Z,16.83
2023-05-02T21:00:32.401Z,16.98
2023-05-02T21:02:58.854Z,16.66
2023-05-02T21:05:25.347Z,16.83
2023-05-02T21:07:51.764Z,17.08
2023-05-02T21:10:18.131Z,17.00
2023-05-02T21:12:44.529Z,17.13
2023-05-02T21:15:11.115Z,17.16
2023-05-02T21:17:37.551Z,16.74
2023-05-02T21:20:04.120Z,16.91
2023-05-02T21:22:30.815Z,16.70
2023-05-02T21:24:57.371Z,16.79
2023-05-02T21:27:23.951Z,16.98
2023-05-02T21:29:50.388Z,17.00
2023-05-02T21:32:16.851Z,17.10
2023-05-02T21:34:43.242Z,17.04
2023-05-02T21:37:09.680Z,17.00
2023-05-02T21:39:36.114Z,16.95
2023-05-02T21:42:02.549Z,17.01
2023-05-02T21:44:29.028Z,17.03
2023-05-02T21:46:55.661Z,17.23
2023-05-02T21:49:22.279Z,16.98
2023-05-02T21:51:48.677Z,17.14
2023-05-02T21:54:15.257Z,17.03
2023-05-02T21:56:41.666Z,17.03
2023-05-02T21:59:08.064Z,16.99
2023-05-02T22:01:34.457Z,17.01
2023-05-02T22:04:00.918Z,16.94
2023-05-02T22:06:27.453Z,16.95
2023-05-02T22:08:53.881Z,16.72
2023-05-02T22:11:22.550Z,16.86
2023-05-02T22:13:48.977Z,16.82
2023-05-02T22:16:15.456Z,16.82
2023-05-02T22:18:41.833Z,16.93
2023-05-02T22:21:08.309Z,16.87
2023-05-02T22:23:34.715Z,16.81
2023-05-02T22:26:01.155Z,16.81
2023-05-02T22:28:27.581Z,16.81
2023-05-02T22:30:53.974Z,16.82
2023-05-02T22:33:20.399Z,16.64
2023-05-02T22:35:46.822Z,16.64
2023-05-02T22:38:13.188Z,16.56
2023-05-02T22:40:39.564Z,16.70
2023-05-02T22:43:05.950Z,16.38
2023-05-02T22:45:32.374Z,16.51
2023-05-02T22:47:58.908Z,16.58
2023-05-02T22:50:25.396Z,16.60
2023-05-02T22:52:51.835Z,16.65
2023-05-02T22:55:18.284Z,16.65
2023-05-02T22:57:44.662Z,16.70
2023-05-02T23:00:11.027Z,16.59
2023-05-02T23:02:37.743Z,16.62
2023-05-02T23:05:04.157Z,16.57
2023-05-02T23:07:34.855Z,16.51
2023-05-02T23:10:01.396Z,16.48
2023-05-02T23:12:28.138Z,16.60
2023-05-02T23:14:54.573Z,16.49
2023-05-02T23:17:20.982Z,16.62
2023-05-02T23:19:47.401Z,16.43
2023-05-02T23:22:13.834Z,16.34
2023-05-02T23:24:40.682Z,16.36
2023-05-02T23:27:07.144Z,16.19
2023-05-02T23:29:33.831Z,16.15
2023-05-02T23:32:00.507Z,16.02
2023-05-02T23:34:27.182Z,16.02
2023-05-02T23:36:56.003Z,16.06
2023-05-02T23:39:22.393Z,16.09
2023-05-02T23:41:48.752Z,16.10
2023-05-02T23:44:15.282Z,16.19
2023-05-02T23:46:41.702Z,16.06
2023-05-02T23:49:08.187Z,16.04
2023-05-02T23:51:34.580Z,16.05
2023-05-02T23:54:00.996Z,16.05
2023-05-02T23:56:30.377Z,15.91
2023-05-02T23:58:56.762Z,16.01
